sensor_id;sensor_type;location;lat;lon;timestamp;temperature;humidity
17172;DHT22;8701;50.150;8.756;2023-04-01T00:02:06;10.90;99.90
17172;DHT22;8701;50.150;8.756;2023-04-01T00:06:13;10.90;99.90
17172;DHT22;8701;50.150;8.756;2023-04-01T00:10:15;10.90;99.90
17172;DHT22;8701;50.150;8.756;2023-04-01T00:14:17;10.90;99.90
17172;DHT22;8701;50.150;8.756;2023-04-01T00:18:20;10.90;99.90
17172;DHT22;8701;50.150;8.756;2023-04-01T00:22:24;10.90;99.90
17172;DHT22;8701;50.150;8.756;2023-04-01T00:26:27;10.90;99.90
17172;DHT22;8701;50.150;8.756;2023-04-01T00:30:29;10.90;99.90
17172;DHT22;8701;50.150;8.756;2023-04-01T00:34:31;10.90;99.90
17172;DHT22;8701;50.150;8.756;2023-04-01T00:38:35;10.90;99.90
17172;DHT22;8701;50.150;8.756;2023-04-01T00:42:37;10.90;99.90
17172;DHT22;8701;50.150;8.756;2023-04-01T00:46:39;10.90;99.90
17172;DHT22;8701;50.150;8.756;2023-04-01T00:50:44;10.90;99.90
17172;DHT22;8701;50.150;8.756;2023-04-01T00:54:52;10.80;99.90
17172;DHT22;8701;50.150;8.756;2023-04-01T00:58:58;10.80;99.90
17172;DHT22;8701;50.150;8.756;2023-04-01T01:03:02;10.80;99.90
17172;DHT22;8701;50.150;8.756;2023-04-01T01:07:13;10.80;99.90
17172;DHT22;8701;50.150;8.756;2023-04-01T01:11:24;10.80;99.90
17172;DHT22;8701;50.150;8.756;2023-04-01T01:15:33;10.80;99.90
17172;DHT22;8701;50.150;8.756;2023-04-01T01:24:51;10.80;99.90
17172;DHT22;8701;50.150;8.756;2023-04-01T01:29:01;10.80;99.90
17172;DHT22;8701;50.150;8.756;2023-04-01T01:33:49;10.80;99.90
17172;DHT22;8701;50.150;8.756;2023-04-01T01:38:00;10.80;99.90
17172;DHT22;8701;50.150;8.756;2023-04-01T01:42:06;10.80;99.90
17172;DHT22;8701;50.150;8.756;2023-04-01T01:46:12;10.80;99.90
17172;DHT22;8701;50.150;8.756;2023-04-01T01:50:17;10.80;99.90
17172;DHT22;8701;50.150;8.756;2023-04-01T01:54:24;10.80;99.90
17172;DHT22;8701;50.150;8.756;2023-04-01T01:58:29;10.80;99.90
17172;DHT22;8701;50.150;8.756;2023-04-01T02:02:32;10.80;99.90
17172;DHT22;8701;50.150;8.756;2023-04-01T02:06:38;10.80;99.90
17172;DHT22;8701;50.150;8.756;2023-04-01T02:10:47;10.80;99.90
17172;DHT22;8701;50.150;8.756;2023-04-01T02:14:58;10.80;99.90
17172;DHT22;8701;50.150;8.756;2023-04-01T02:19:04;10.80;99.90
17172;DHT22;8701;50.150;8.756;2023-04-01T02:23:09;10.80;99.90
17172;DHT22;8701;50.150;8.756;2023-04-01T02:27:14;10.80;99.90
17172;DHT22;8701;50.150;8.756;2023-04-01T02:31:17;10.80;99.90
17172;DHT22;8701;50.150;8.756;2023-04-01T02:35:20;10.80;99.90
17172;DHT22;8701;50.150;8.756;2023-04-01T02:39:22;10.70;99.90
17172;DHT22;8701;50.150;8.756;2023-04-01T02:43:28;10.70;99.90
17172;DHT22;8701;50.150;8.756;2023-04-01T02:47:31;10.70;99.90
17172;DHT22;8701;50.150;8.756;2023-04-01T02:51:33;10.70;99.90
17172;DHT22;8701;50.150;8.756;2023-04-01T02:55:36;10.70;99.90
17172;DHT22;8701;50.150;8.756;2023-04-01T02:59:39;10.70;99.90
17172;DHT22;8701;50.150;8.756;2023-04-01T03:03:42;10.70;99.90
17172;DHT22;8701;50.150;8.756;2023-04-01T03:07:45;10.70;99.90
17172;DHT22;8701;50.150;8.756;2023-04-01T03:11:48;10.60;99.90
17172;DHT22;8701;50.150;8.756;2023-04-01T03:15:52;10.60;99.90
17172;DHT22;8701;50.150;8.756;2023-04-01T03:19:54;10.60;99.90
17172;DHT22;8701;50.150;8.756;2023-04-01T03:23:57;10.50;99.90
17172;DHT22;8701;50.150;8.756;2023-04-01T03:27:59;10.50;99.90
17172;DHT22;8701;50.150;8.756;2023-04-01T03:32:03;10.50;99.90
17172;DHT22;8701;50.150;8.756;2023-04-01T03:36:06;10.50;99.90
17172;DHT22;8701;50.150;8.756;2023-04-01T03:40:09;10.50;99.90
17172;DHT22;8701;50.150;8.756;2023-04-01T03:44:12;10.40;99.90
17172;DHT22;8701;50.150;8.756;2023-04-01T03:48:16;10.40;99.90
17172;DHT22;8701;50.150;8.756;2023-04-01T03:52:18;10.40;99.90
17172;DHT22;8701;50.150;8.756;2023-04-01T03:56:21;10.30;99.90
17172;DHT22;8701;50.150;8.756;2023-04-01T04:00:24;10.30;99.90
17172;DHT22;8701;50.150;8.756;2023-04-01T04:04:31;10.30;99.90
17172;DHT22;8701;50.150;8.756;2023-04-01T04:08:33;10.40;99.90
17172;DHT22;8701;50.150;8.756;2023-04-01T04:12:35;10.40;99.90
17172;DHT22;8701;50.150;8.756;2023-04-01T04:16:38;10.40;99.90
17172;DHT22;8701;50.150;8.756;2023-04-01T04:20:45;10.40;99.90
17172;DHT22;8701;50.150;8.756;2023-04-01T04:24:49;10.40;99.90
17172;DHT22;8701;50.150;8.756;2023-04-01T04:28:53;10.40;99.90
17172;DHT22;8701;50.150;8.756;2023-04-01T04:32:56;10.40;99.90
17172;DHT22;8701;50.150;8.756;2023-04-01T04:36:59;10.40;99.90
17172;DHT22;8701;50.150;8.756;2023-04-01T04:41:08;10.40;99.90
17172;DHT22;8701;50.150;8.756;2023-04-01T04:45:13;10.40;99.90
17172;DHT22;8701;50.150;8.756;2023-04-01T04:49:23;10.40;99.90
17172;DHT22;8701;50.150;8.756;2023-04-01T04:53:27;10.40;99.90
17172;DHT22;8701;50.150;8.756;2023-04-01T04:57:29;10.40;99.90
17172;DHT22;8701;50.150;8.756;2023-04-01T05:01:32;10.40;99.90
17172;DHT22;8701;50.150;8.756;2023-04-01T05:05:35;10.30;99.90
17172;DHT22;8701;50.150;8.756;2023-04-01T05:09:40;10.30;99.90
17172;DHT22;8701;50.150;8.756;2023-04-01T05:13:43;10.30;99.90
17172;DHT22;8701;50.150;8.756;2023-04-01T05:17:46;10.30;99.90
17172;DHT22;8701;50.150;8.756;2023-04-01T05:21:49;10.20;99.90
17172;DHT22;8701;50.150;8.756;2023-04-01T05:25:56;10.30;99.90
17172;DHT22;8701;50.150;8.756;2023-04-01T05:29:58;10.20;99.90
17172;DHT22;8701;50.150;8.756;2023-04-01T05:34:15;10.20;99.90
17172;DHT22;8701;50.150;8.756;2023-04-01T05:38:18;10.30;99.90
17172;DHT22;8701;50.150;8.756;2023-04-01T05:42:22;10.30;99.90
17172;DHT22;8701;50.150;8.756;2023-04-01T05:46:24;10.30;99.90
17172;DHT22;8701;50.150;8.756;2023-04-01T05:50:41;10.30;99.90
17172;DHT22;8701;50.150;8.756;2023-04-01T05:54:44;10.20;99.90
17172;DHT22;8701;50.150;8.756;2023-04-01T05:58:51;10.20;99.90
17172;DHT22;8701;50.150;8.756;2023-04-01T06:02:58;10.30;99.90
17172;DHT22;8701;50.150;8.756;2023-04-01T06:07:00;10.20;99.90
17172;DHT22;8701;50.150;8.756;2023-04-01T06:11:16;10.20;99.90
17172;DHT22;8701;50.150;8.756;2023-04-01T06:15:35;10.20;99.90
17172;DHT22;8701;50.150;8.756;2023-04-01T06:19:50;10.20;99.90
17172;DHT22;8701;50.150;8.756;2023-04-01T06:24:00;10.20;99.90
17172;DHT22;8701;50.150;8.756;2023-04-01T06:33:00;10.10;99.90
17172;DHT22;8701;50.150;8.756;2023-04-01T06:37:20;10.00;99.90
17172;DHT22;8701;50.150;8.756;2023-04-01T06:41:57;10.00;99.90
17172;DHT22;8701;50.150;8.756;2023-04-01T06:46:11;10.10;99.90
17172;DHT22;8701;50.150;8.756;2023-04-01T06:50:43;10.10;99.90
17172;DHT22;8701;50.150;8.756;2023-04-01T06:55:19;10.10;99.90
17172;DHT22;8701;50.150;8.756;2023-04-01T06:59:41;10.20;99.90
17172;DHT22;8701;50.150;8.756;2023-04-01T07:03:49;10.20;99.90
17172;DHT22;8701;50.150;8.756;2023-04-01T07:07:59;10.30;99.90
17172;DHT22;8701;50.150;8.756;2023-04-01T07:12:09;10.30;99.90
17172;DHT22;8701;50.150;8.756;2023-04-01T07:16:38;10.40;99.90
17172;DHT22;8701;50.150;8.756;2023-04-01T07:20:42;10.40;99.90
17172;DHT22;8701;50.150;8.756;2023-04-01T07:24:46;10.50;99.90
17172;DHT22;8701;50.150;8.756;2023-04-01T07:28:50;10.60;99.90
17172;DHT22;8701;50.150;8.756;2023-04-01T07:33:16;10.50;99.90
17172;DHT22;8701;50.150;8.756;2023-04-01T07:37:26;10.40;99.90
17172;DHT22;8701;50.150;8.756;2023-04-01T07:41:40;10.40;99.90
17172;DHT22;8701;50.150;8.756;2023-04-01T07:45:53;10.60;99.90
17172;DHT22;8701;50.150;8.756;2023-04-01T07:50:08;10.50;99.90
17172;DHT22;8701;50.150;8.756;2023-04-01T07:54:18;10.50;99.90
17172;DHT22;8701;50.150;8.756;2023-04-01T07:58:29;10.40;99.90
17172;DHT22;8701;50.150;8.756;2023-04-01T08:02:44;10.40;99.90
17172;DHT22;8701;50.150;8.756;2023-04-01T08:06:56;10.50;99.90
17172;DHT22;8701;50.150;8.756;2023-04-01T08:11:09;10.50;99.90
17172;DHT22;8701;50.150;8.756;2023-04-01T08:15:40;10.60;99.90
17172;DHT22;8701;50.150;8.756;2023-04-01T08:20:04;10.70;99.90
17172;DHT22;8701;50.150;8.756;2023-04-01T08:24:17;10.90;99.90
17172;DHT22;8701;50.150;8.756;2023-04-01T08:28:26;10.90;99.90
17172;DHT22;8701;50.150;8.756;2023-04-01T08:32:35;11.00;99.90
17172;DHT22;8701;50.150;8.756;2023-04-01T08:36:42;11.10;99.90
17172;DHT22;8701;50.150;8.756;2023-04-01T08:40:58;11.10;99.90
17172;DHT22;8701;50.150;8.756;2023-04-01T08:45:30;11.10;99.90
17172;DHT22;8701;50.150;8.756;2023-04-01T08:49:49;11.00;99.90
17172;DHT22;8701;50.150;8.756;2023-04-01T08:54:36;11.00;99.90
17172;DHT22;8701;50.150;8.756;2023-04-01T09:03:26;11.20;99.90
17172;DHT22;8701;50.150;8.756;2023-04-01T09:07:40;11.40;99.90
17172;DHT22;8701;50.150;8.756;2023-04-01T09:12:11;11.40;99.90
17172;DHT22;8701;50.150;8.756;2023-04-01T09:16:27;11.40;99.90
17172;DHT22;8701;50.150;8.756;2023-04-01T09:20:46;11.40;99.90
17172;DHT22;8701;50.150;8.756;2023-04-01T09:25:23;11.40;99.90
17172;DHT22;8701;50.150;8.756;2023-04-01T09:29:48;11.30;99.90
17172;DHT22;8701;50.150;8.756;2023-04-01T09:38:40;11.20;99.90
17172;DHT22;8701;50.150;8.756;2023-04-01T09:43:16;11.10;99.90
17172;DHT22;8701;50.150;8.756;2023-04-01T09:47:42;11.20;99.90
17172;DHT22;8701;50.150;8.756;2023-04-01T09:51:55;11.30;99.90
17172;DHT22;8701;50.150;8.756;2023-04-01T09:56:23;11.30;99.90
17172;DHT22;8701;50.150;8.756;2023-04-01T10:10:16;11.40;99.90
17172;DHT22;8701;50.150;8.756;2023-04-01T10:14:52;11.40;99.90
17172;DHT22;8701;50.150;8.756;2023-04-01T10:23:55;11.50;99.90
17172;DHT22;8701;50.150;8.756;2023-04-01T10:28:24;11.50;99.90
17172;DHT22;8701;50.150;8.756;2023-04-01T10:33:20;11.50;99.90
17172;DHT22;8701;50.150;8.756;2023-04-01T10:37:57;11.40;99.90
17172;DHT22;8701;50.150;8.756;2023-04-01T10:42:27;11.50;99.90
17172;DHT22;8701;50.150;8.756;2023-04-01T10:57:27;11.50;99.90
17172;DHT22;8701;50.150;8.756;2023-04-01T11:07:12;11.80;99.90
17172;DHT22;8701;50.150;8.756;2023-04-01T11:16:17;11.80;99.90
17172;DHT22;8701;50.150;8.756;2023-04-01T11:20:45;11.80;99.90
17172;DHT22;8701;50.150;8.756;2023-04-01T11:25:20;11.70;99.90
17172;DHT22;8701;50.150;8.756;2023-04-01T11:29:57;11.80;99.90
17172;DHT22;8701;50.150;8.756;2023-04-01T11:34:17;12.00;99.90
17172;DHT22;8701;50.150;8.756;2023-04-01T11:38:34;12.10;99.90
17172;DHT22;8701;50.150;8.756;2023-04-01T11:43:03;12.10;99.90
17172;DHT22;8701;50.150;8.756;2023-04-01T11:47:53;12.00;99.90
17172;DHT22;8701;50.150;8.756;2023-04-01T11:56:58;12.00;99.90
17172;DHT22;8701;50.150;8.756;2023-04-01T12:01:24;12.10;99.90
17172;DHT22;8701;50.150;8.756;2023-04-01T12:05:37;12.10;99.90
17172;DHT22;8701;50.150;8.756;2023-04-01T12:09:49;12.10;99.90
17172;DHT22;8701;50.150;8.756;2023-04-01T12:13:59;12.10;99.90
17172;DHT22;8701;50.150;8.756;2023-04-01T12:18:11;12.10;99.90
17172;DHT22;8701;50.150;8.756;2023-04-01T12:22:34;12.00;99.90
17172;DHT22;8701;50.150;8.756;2023-04-01T12:26:52;11.90;99.90
17172;DHT22;8701;50.150;8.756;2023-04-01T12:31:05;11.70;99.90
17172;DHT22;8701;50.150;8.756;2023-04-01T12:35:23;11.70;99.90
17172;DHT22;8701;50.150;8.756;2023-04-01T12:39:44;11.80;99.90
17172;DHT22;8701;50.150;8.756;2023-04-01T12:44:08;11.80;99.90
17172;DHT22;8701;50.150;8.756;2023-04-01T12:48:32;11.70;99.90
17172;DHT22;8701;50.150;8.756;2023-04-01T12:52:49;11.70;99.90
17172;DHT22;8701;50.150;8.756;2023-04-01T12:57:10;11.60;99.90
17172;DHT22;8701;50.150;8.756;2023-04-01T13:01:30;11.60;99.90
17172;DHT22;8701;50.150;8.756;2023-04-01T13:06:07;11.60;99.90
17172;DHT22;8701;50.150;8.756;2023-04-01T13:10:27;11.70;99.90
17172;DHT22;8701;50.150;8.756;2023-04-01T13:14:44;11.80;99.90
17172;DHT22;8701;50.150;8.756;2023-04-01T13:18:58;11.90;99.90
17172;DHT22;8701;50.150;8.756;2023-04-01T13:23:12;11.90;99.90
17172;DHT22;8701;50.150;8.756;2023-04-01T13:27:20;11.90;99.90
17172;DHT22;8701;50.150;8.756;2023-04-01T13:31:44;11.90;99.90
17172;DHT22;8701;50.150;8.756;2023-04-01T13:36:00;12.00;99.90
17172;DHT22;8701;50.150;8.756;2023-04-01T13:40:33;12.10;99.90
17172;DHT22;8701;50.150;8.756;2023-04-01T13:44:42;12.40;99.90
17172;DHT22;8701;50.150;8.756;2023-04-01T13:49:04;12.70;99.90
17172;DHT22;8701;50.150;8.756;2023-04-01T13:53:49;12.80;99.90
17172;DHT22;8701;50.150;8.756;2023-04-01T14:02:44;13.30;99.90
17172;DHT22;8701;50.150;8.756;2023-04-01T14:06:57;14.10;99.90
17172;DHT22;8701;50.150;8.756;2023-04-01T14:11:13;14.30;99.90
17172;DHT22;8701;50.150;8.756;2023-04-01T14:15:42;14.10;99.90
17172;DHT22;8701;50.150;8.756;2023-04-01T14:20:04;13.80;99.90
17172;DHT22;8701;50.150;8.756;2023-04-01T14:24:29;13.70;99.90
17172;DHT22;8701;50.150;8.756;2023-04-01T14:28:41;13.50;99.90
17172;DHT22;8701;50.150;8.756;2023-04-01T14:32:51;13.50;99.90
17172;DHT22;8701;50.150;8.756;2023-04-01T14:37:10;13.50;99.90
17172;DHT22;8701;50.150;8.756;2023-04-01T14:41:21;13.40;99.90
17172;DHT22;8701;50.150;8.756;2023-04-01T14:45:45;13.40;99.90
17172;DHT22;8701;50.150;8.756;2023-04-01T14:49:52;13.60;99.90
17172;DHT22;8701;50.150;8.756;2023-04-01T14:54:02;13.80;99.90
17172;DHT22;8701;50.150;8.756;2023-04-01T14:58:11;13.80;99.90
17172;DHT22;8701;50.150;8.756;2023-04-01T15:02:34;13.90;99.90
17172;DHT22;8701;50.150;8.756;2023-04-01T15:06:55;13.80;99.90
17172;DHT22;8701;50.150;8.756;2023-04-01T15:11:17;13.60;99.90
17172;DHT22;8701;50.150;8.756;2023-04-01T15:15:30;13.40;99.90
17172;DHT22;8701;50.150;8.756;2023-04-01T15:19:46;13.30;99.90
17172;DHT22;8701;50.150;8.756;2023-04-01T15:23:57;13.20;99.90
17172;DHT22;8701;50.150;8.756;2023-04-01T15:28:06;13.20;99.90
17172;DHT22;8701;50.150;8.756;2023-04-01T15:32:17;13.20;99.90
17172;DHT22;8701;50.150;8.756;2023-04-01T15:36:33;13.20;99.90
17172;DHT22;8701;50.150;8.756;2023-04-01T15:40:42;13.10;99.90
17172;DHT22;8701;50.150;8.756;2023-04-01T15:44:57;13.10;99.90
17172;DHT22;8701;50.150;8.756;2023-04-01T15:49:08;13.00;99.90
17172;DHT22;8701;50.150;8.756;2023-04-01T15:53:22;12.90;99.90
17172;DHT22;8701;50.150;8.756;2023-04-01T15:57:32;13.00;99.90
17172;DHT22;8701;50.150;8.756;2023-04-01T16:01:42;13.00;99.90
17172;DHT22;8701;50.150;8.756;2023-04-01T16:05:59;13.10;99.90
17172;DHT22;8701;50.150;8.756;2023-04-01T16:10:16;13.10;99.90
17172;DHT22;8701;50.150;8.756;2023-04-01T16:14:31;13.10;99.90
17172;DHT22;8701;50.150;8.756;2023-04-01T16:18:46;12.90;99.90
17172;DHT22;8701;50.150;8.756;2023-04-01T16:22:55;12.80;99.90
17172;DHT22;8701;50.150;8.756;2023-04-01T16:27:05;12.70;99.90
17172;DHT22;8701;50.150;8.756;2023-04-01T16:31:15;12.70;99.90
17172;DHT22;8701;50.150;8.756;2023-04-01T16:35:34;12.70;99.90
17172;DHT22;8701;50.150;8.756;2023-04-01T16:39:43;12.60;99.90
17172;DHT22;8701;50.150;8.756;2023-04-01T16:43:50;12.60;99.90
17172;DHT22;8701;50.150;8.756;2023-04-01T16:47:58;12.50;99.90
17172;DHT22;8701;50.150;8.756;2023-04-01T16:52:17;12.50;99.90
17172;DHT22;8701;50.150;8.756;2023-04-01T16:56:39;12.50;99.90
17172;DHT22;8701;50.150;8.756;2023-04-01T17:00:48;12.50;99.90
17172;DHT22;8701;50.150;8.756;2023-04-01T17:04:56;12.40;99.90
17172;DHT22;8701;50.150;8.756;2023-04-01T17:09:14;12.50;99.90
17172;DHT22;8701;50.150;8.756;2023-04-01T17:13:33;12.50;99.90
17172;DHT22;8701;50.150;8.756;2023-04-01T17:17:43;12.30;99.90
17172;DHT22;8701;50.150;8.756;2023-04-01T17:21:56;12.20;99.90
17172;DHT22;8701;50.150;8.756;2023-04-01T17:26:17;12.20;99.90
17172;DHT22;8701;50.150;8.756;2023-04-01T17:30:30;12.20;99.90
17172;DHT22;8701;50.150;8.756;2023-04-01T17:34:44;12.20;99.90
17172;DHT22;8701;50.150;8.756;2023-04-01T17:38:58;12.10;99.90
17172;DHT22;8701;50.150;8.756;2023-04-01T17:43:12;12.10;99.90
17172;DHT22;8701;50.150;8.756;2023-04-01T17:47:34;12.00;99.90
17172;DHT22;8701;50.150;8.756;2023-04-01T17:51:43;12.10;99.90
17172;DHT22;8701;50.150;8.756;2023-04-01T17:55:55;12.00;99.90
17172;DHT22;8701;50.150;8.756;2023-04-01T18:00:06;11.90;99.90
17172;DHT22;8701;50.150;8.756;2023-04-01T18:04:24;11.80;99.90
17172;DHT22;8701;50.150;8.756;2023-04-01T18:08:43;11.80;99.90
17172;DHT22;8701;50.150;8.756;2023-04-01T18:17:25;11.80;99.90
17172;DHT22;8701;50.150;8.756;2023-04-01T18:21:38;11.80;99.90
17172;DHT22;8701;50.150;8.756;2023-04-01T18:25:47;11.80;99.90
17172;DHT22;8701;50.150;8.756;2023-04-01T18:29:52;11.80;99.90
17172;DHT22;8701;50.150;8.756;2023-04-01T18:33:59;11.80;99.90
17172;DHT22;8701;50.150;8.756;2023-04-01T18:38:11;11.70;99.90
17172;DHT22;8701;50.150;8.756;2023-04-01T18:42:22;11.70;99.90
17172;DHT22;8701;50.150;8.756;2023-04-01T18:46:38;11.60;99.90
17172;DHT22;8701;50.150;8.756;2023-04-01T18:50:43;11.60;99.90
17172;DHT22;8701;50.150;8.756;2023-04-01T18:59:32;11.60;99.90
17172;DHT22;8701;50.150;8.756;2023-04-01T19:03:43;11.60;99.90
17172;DHT22;8701;50.150;8.756;2023-04-01T19:07:48;11.50;99.90
17172;DHT22;8701;50.150;8.756;2023-04-01T19:12:05;11.50;99.90
17172;DHT22;8701;50.150;8.756;2023-04-01T19:16:21;11.60;99.90
17172;DHT22;8701;50.150;8.756;2023-04-01T19:20:32;11.50;99.90
17172;DHT22;8701;50.150;8.756;2023-04-01T19:24:56;11.50;99.90
17172;DHT22;8701;50.150;8.756;2023-04-01T19:29:05;11.50;99.90
17172;DHT22;8701;50.150;8.756;2023-04-01T19:33:19;11.50;99.90
17172;DHT22;8701;50.150;8.756;2023-04-01T19:37:31;11.40;99.90
17172;DHT22;8701;50.150;8.756;2023-04-01T19:41:40;11.30;99.90
17172;DHT22;8701;50.150;8.756;2023-04-01T19:45:51;11.30;99.90
17172;DHT22;8701;50.150;8.756;2023-04-01T19:50:00;11.30;99.90
17172;DHT22;8701;50.150;8.756;2023-04-01T19:54:16;11.30;99.90
17172;DHT22;8701;50.150;8.756;2023-04-01T19:58:26;11.30;99.90
17172;DHT22;8701;50.150;8.756;2023-04-01T20:02:38;11.30;99.90
17172;DHT22;8701;50.150;8.756;2023-04-01T20:06:47;11.30;99.90
17172;DHT22;8701;50.150;8.756;2023-04-01T20:11:02;11.30;99.90
17172;DHT22;8701;50.150;8.756;2023-04-01T20:15:22;11.30;99.90
17172;DHT22;8701;50.150;8.756;2023-04-01T20:19:35;11.30;99.90
17172;DHT22;8701;50.150;8.756;2023-04-01T20:23:43;11.30;99.90
17172;DHT22;8701;50.150;8.756;2023-04-01T20:27:50;11.30;99.90
17172;DHT22;8701;50.150;8.756;2023-04-01T20:31:59;11.20;99.90
17172;DHT22;8701;50.150;8.756;2023-04-01T20:36:12;11.20;99.90
17172;DHT22;8701;50.150;8.756;2023-04-01T20:40:31;11.10;99.90
17172;DHT22;8701;50.150;8.756;2023-04-01T20:44:39;11.20;99.90
17172;DHT22;8701;50.150;8.756;2023-04-01T20:49:02;11.20;99.90
17172;DHT22;8701;50.150;8.756;2023-04-01T20:53:13;11.20;99.90
17172;DHT22;8701;50.150;8.756;2023-04-01T20:57:21;11.20;99.90
17172;DHT22;8701;50.150;8.756;2023-04-01T21:01:34;11.20;99.90
17172;DHT22;8701;50.150;8.756;2023-04-01T21:05:55;11.20;99.90
17172;DHT22;8701;50.150;8.756;2023-04-01T21:10:19;11.20;99.90
17172;DHT22;8701;50.150;8.756;2023-04-01T21:14:54;11.20;99.90
17172;DHT22;8701;50.150;8.756;2023-04-01T21:19:06;11.10;99.90
17172;DHT22;8701;50.150;8.756;2023-04-01T21:23:29;11.10;99.90
17172;DHT22;8701;50.150;8.756;2023-04-01T21:32:37;11.10;99.90
17172;DHT22;8701;50.150;8.756;2023-04-01T21:36:54;11.10;99.90
17172;DHT22;8701;50.150;8.756;2023-04-01T21:41:34;11.10;99.90
17172;DHT22;8701;50.150;8.756;2023-04-01T21:45:54;11.10;99.90
17172;DHT22;8701;50.150;8.756;2023-04-01T21:50:23;11.10;99.90
17172;DHT22;8701;50.150;8.756;2023-04-01T21:54:50;11.00;99.90
17172;DHT22;8701;50.150;8.756;2023-04-01T21:59:25;11.00;99.90
17172;DHT22;8701;50.150;8.756;2023-04-01T22:04:03;10.90;99.90
17172;DHT22;8701;50.150;8.756;2023-04-01T22:08:24;10.90;99.90
17172;DHT22;8701;50.150;8.756;2023-04-01T22:12:36;11.00;99.90
17172;DHT22;8701;50.150;8.756;2023-04-01T22:16:44;11.00;99.90
17172;DHT22;8701;50.150;8.756;2023-04-01T22:20:53;11.00;99.90
17172;DHT22;8701;50.150;8.756;2023-04-01T22:25:05;11.00;99.90
17172;DHT22;8701;50.150;8.756;2023-04-01T22:29:12;11.00;99.90
17172;DHT22;8701;50.150;8.756;2023-04-01T22:33:22;11.00;99.90
17172;DHT22;8701;50.150;8.756;2023-04-01T22:37:33;11.00;99.90
17172;DHT22;8701;50.150;8.756;2023-04-01T22:41:51;11.00;99.90
17172;DHT22;8701;50.150;8.756;2023-04-01T22:46:09;11.00;99.90
17172;DHT22;8701;50.150;8.756;2023-04-01T22:50:20;11.00;99.90
17172;DHT22;8701;50.150;8.756;2023-04-01T22:54:27;11.00;99.90
17172;DHT22;8701;50.150;8.756;2023-04-01T22:58:35;11.00;99.90
17172;DHT22;8701;50.150;8.756;2023-04-01T23:02:42;11.00;99.90
17172;DHT22;8701;50.150;8.756;2023-04-01T23:06:50;11.00;99.90
17172;DHT22;8701;50.150;8.756;2023-04-01T23:10:56;10.90;99.90
17172;DHT22;8701;50.150;8.756;2023-04-01T23:15:01;10.90;99.90
17172;DHT22;8701;50.150;8.756;2023-04-01T23:19:11;10.90;99.90
17172;DHT22;8701;50.150;8.756;2023-04-01T23:23:33;10.90;99.90
17172;DHT22;8701;50.150;8.756;2023-04-01T23:27:40;10.80;99.90
17172;DHT22;8701;50.150;8.756;2023-04-01T23:31:47;10.70;99.90
17172;DHT22;8701;50.150;8.756;2023-04-01T23:35:51;10.70;99.90
17172;DHT22;8701;50.150;8.756;2023-04-01T23:39:56;10.70;99.90
17172;DHT22;8701;50.150;8.756;2023-04-01T23:44:02;10.70;99.90
17172;DHT22;8701;50.150;8.756;2023-04-01T23:48:10;10.60;99.90
17172;DHT22;8701;50.150;8.756;2023-04-01T23:52:14;10.50;99.90
17172;DHT22;8701;50.150;8.756;2023-04-01T23:56:19;10.50;99.90
